Time;durP1;ratioP1;P1;durP2;ratioP2;P2;SDS_P1;SDS_P2;PMS_P1;PMS_P2;Temp;Humidity;BMP_temperature;BMP_pressure;BME280_temperature;BME280_humidity;BME280_pressure;Samples;Min_cycle;Max_cycle;Signal;HPM_P1;HPM_P2
2022/03/28 00:00:38;;;;;;;20.73;8.23;;;3.20;54.60;;;;;;4192060;28;20277;-58
2022/03/28 00:02:41;;;;;;;22.27;9.00;;;3.10;54.70;;;;;;4189888;28;20300;-53
2022/03/28 00:04:42;;;;;;;18.23;8.67;;;3.00;55.20;;;;;;4191418;28;20827;-55
2022/03/28 00:06:44;;;;;;;20.63;9.70;;;2.90;55.60;;;;;;4189983;28;20339;-57
2022/03/28 00:08:45;;;;;;;18.53;8.80;;;2.70;55.70;;;;;;4191238;28;20290;-54
2022/03/28 00:10:46;;;;;;;20.63;9.50;;;2.60;55.80;;;;;;4190343;28;20315;-61
2022/03/28 00:12:48;;;;;;;22.17;9.43;;;2.60;56.00;;;;;;4205801;28;20273;-52
2022/03/28 00:14:49;;;;;;;23.97;11.03;;;2.50;56.40;;;;;;4200790;28;20330;-56
2022/03/28 00:16:50;;;;;;;25.27;10.23;;;2.40;56.60;;;;;;4208338;28;20260;-54
2022/03/28 00:18:51;;;;;;;26.70;11.43;;;2.30;56.40;;;;;;4207147;28;20349;-56
2022/03/28 00:20:54;;;;;;;28.23;11.80;;;2.30;56.60;;;;;;4205274;28;20361;-57
2022/03/28 00:22:55;;;;;;;26.17;11.13;;;2.30;57.20;;;;;;4204776;28;20740;-53
2022/03/28 00:24:56;;;;;;;24.57;10.27;;;2.20;57.10;;;;;;4206439;28;20264;-56
2022/03/28 00:26:57;;;;;;;22.63;9.23;;;2.20;57.10;;;;;;4192874;28;20281;-59
2022/03/28 00:28:58;;;;;;;23.20;9.73;;;2.10;56.90;;;;;;4189449;28;20774;-54
2022/03/28 00:30:59;;;;;;;20.33;9.40;;;2.10;56.90;;;;;;4190716;28;20273;-54
2022/03/28 00:33:01;;;;;;;15.73;8.87;;;2.10;57.10;;;;;;4189864;28;20270;-60
2022/03/28 00:35:03;;;;;;;22.30;8.73;;;2.00;57.50;;;;;;4190852;28;20815;-56
2022/03/28 00:37:04;;;;;;;19.13;8.93;;;2.10;57.70;;;;;;4189662;28;20315;-56
2022/03/28 00:39:06;;;;;;;21.07;8.70;;;2.10;57.30;;;;;;4190961;28;20691;-55
2022/03/28 00:41:07;;;;;;;17.10;7.40;;;2.10;57.20;;;;;;4198672;28;20295;-55
2022/03/28 00:43:09;;;;;;;16.67;8.30;;;2.10;57.30;;;;;;4207552;28;20326;-57
2022/03/28 00:45:10;;;;;;;20.00;8.40;;;2.10;57.10;;;;;;4206195;28;21045;-53
2022/03/28 00:47:11;;;;;;;19.90;8.00;;;2.10;57.60;;;;;;4204226;28;20273;-61
2022/03/28 00:49:13;;;;;;;18.23;8.50;;;2.10;57.70;;;;;;4190146;28;20273;-56
2022/03/28 00:51:15;;;;;;;19.00;7.73;;;2.00;57.70;;;;;;4190693;28;20660;-51
2022/03/28 00:53:16;;;;;;;20.93;9.70;;;2.00;57.70;;;;;;4190750;28;20281;-52
2022/03/28 00:55:18;;;;;;;17.63;7.40;;;2.00;58.00;;;;;;4189600;28;20262;-53
2022/03/28 00:57:19;;;;;;;18.20;7.80;;;2.00;58.20;;;;;;4190516;28;20311;-53
2022/03/28 00:59:20;;;;;;;17.83;8.80;;;1.90;58.10;;;;;;4189343;28;20355;-56
2022/03/28 01:01:21;;;;;;;21.03;9.20;;;1.90;58.00;;;;;;4190925;28;20265;-55
2022/03/28 01:03:23;;;;;;;17.90;8.40;;;1.90;57.70;;;;;;4189148;28;20331;-62
2022/03/28 01:05:26;;;;;;;16.63;7.97;;;1.90;58.00;;;;;;4190482;28;20331;-59
2022/03/28 01:07:28;;;;;;;18.87;8.70;;;1.90;58.10;;;;;;4188583;28;20290;-54
2022/03/28 01:09:29;;;;;;;19.23;8.30;;;1.80;57.70;;;;;;4191413;28;20841;-53
2022/03/28 01:11:35;;;;;;;21.33;9.27;;;1.80;58.30;;;;;;4192255;28;20306;-57
2022/03/28 01:13:39;;;;;;;24.40;8.90;;;1.80;58.60;;;;;;4206065;28;20292;-54
2022/03/28 01:15:40;;;;;;;18.07;8.93;;;1.70;59.00;;;;;;4205856;28;20280;-58
2022/03/28 01:20:03;;;;;;;19.40;8.63;;;1.50;58.60;;;;;;4206144;28;20314;-55
2022/03/28 01:22:04;;;;;;;19.33;8.23;;;1.50;58.60;;;;;;4207448;28;20260;-60
2022/03/28 01:24:05;;;;;;;22.13;8.97;;;1.50;58.60;;;;;;4206125;28;20280;-52
2022/03/28 01:26:08;;;;;;;19.03;8.27;;;1.40;59.00;;;;;;4206764;28;20281;-53
2022/03/28 01:28:10;;;;;;;20.23;8.30;;;1.40;59.20;;;;;;4199446;28;20310;-53
2022/03/28 01:30:11;;;;;;;18.33;8.97;;;1.40;59.00;;;;;;4205269;28;20322;-58
2022/03/28 01:32:12;;;;;;;19.40;8.10;;;1.40;58.80;;;;;;4189883;28;20749;-60
2022/03/28 01:34:21;;;;;;;20.67;9.23;;;1.30;59.20;;;;;;4189509;28;20269;-55
2022/03/28 01:36:25;;;;;;;18.87;8.27;;;1.30;59.30;;;;;;4190693;28;20305;-56
2022/03/28 01:38:26;;;;;;;20.83;8.13;;;1.30;59.80;;;;;;4188505;28;20297;-59
2022/03/28 01:40:28;;;;;;;17.27;8.33;;;1.20;59.60;;;;;;4190192;28;20262;-54
2022/03/28 01:42:31;;;;;;;19.93;8.33;;;1.20;59.80;;;;;;4183919;28;20305;-61
2022/03/28 01:44:33;;;;;;;21.17;8.83;;;1.20;59.80;;;;;;4173977;28;20327;-55
2022/03/28 01:46:45;;;;;;;20.77;8.57;;;1.10;60.00;;;;;;4198683;28;20714;-58
2022/03/28 01:48:46;;;;;;;21.67;8.33;;;1.10;60.70;;;;;;4190022;28;20269;-52
2022/03/28 01:50:47;;;;;;;18.93;8.37;;;1.00;60.30;;;;;;4186923;28;20269;-54
2022/03/28 01:52:48;;;;;;;20.93;8.37;;;1.00;60.60;;;;;;4189668;28;20315;-58
2022/03/28 01:54:50;;;;;;;18.63;8.70;;;1.00;60.40;;;;;;4188965;28;20682;-55
2022/03/28 01:56:51;;;;;;;22.43;8.27;;;0.90;60.80;;;;;;4189822;28;20761;-53
2022/03/28 01:58:52;;;;;;;16.07;7.77;;;1.00;61.10;;;;;;4188190;28;20289;-61
2022/03/28 02:00:53;;;;;;;17.50;8.63;;;1.00;60.90;;;;;;4182524;28;20685;-53
2022/03/28 02:02:55;;;;;;;19.80;8.40;;;1.00;60.40;;;;;;4171622;28;20263;-56
2022/03/28 02:04:56;;;;;;;21.80;9.37;;;1.00;60.00;;;;;;4171678;28;20328;-51
2022/03/28 02:06:57;;;;;;;20.97;8.67;;;1.10;60.20;;;;;;4172950;28;20675;-55
2022/03/28 02:08:58;;;;;;;21.23;8.27;;;1.10;59.90;;;;;;4172253;28;20293;-56
2022/03/28 02:10:59;;;;;;;20.17;8.40;;;1.10;60.00;;;;;;4174461;28;20371;-55
2022/03/28 02:13:01;;;;;;;20.13;9.13;;;1.10;60.20;;;;;;4172205;28;20270;-58
2022/03/28 02:15:06;;;;;;;16.43;7.90;;;1.00;60.30;;;;;;4173543;28;20546;-58
2022/03/28 02:17:08;;;;;;;17.50;8.33;;;1.00;60.30;;;;;;4183691;28;20282;-61
2022/03/28 02:19:09;;;;;;;19.50;8.37;;;1.00;60.30;;;;;;4188426;28;20298;-61
2022/03/28 02:21:10;;;;;;;16.47;7.57;;;1.00;60.50;;;;;;4188622;28;20273;-54
2022/03/28 02:23:11;;;;;;;18.13;9.43;;;1.00;60.40;;;;;;4189633;28;20938;-56
2022/03/28 02:25:15;;;;;;;18.40;8.33;;;0.90;60.80;;;;;;4187947;28;20905;-52
2022/03/28 02:27:16;;;;;;;22.27;9.10;;;0.90;60.90;;;;;;4192775;28;20289;-58
2022/03/28 02:29:17;;;;;;;17.10;8.77;;;0.80;61.20;;;;;;4191528;28;20269;-50
2022/03/28 02:31:19;;;;;;;23.80;10.30;;;0.90;60.70;;;;;;4177871;28;20969;-57
2022/03/28 02:33:20;;;;;;;23.60;8.80;;;0.80;61.40;;;;;;4189898;28;20265;-55
2022/03/28 02:35:22;;;;;;;21.07;10.23;;;0.70;61.60;;;;;;4177323;28;20270;-54
2022/03/28 02:37:23;;;;;;;18.33;8.10;;;0.70;61.30;;;;;;4175087;28;20262;-54
2022/03/28 02:39:25;;;;;;;18.90;8.93;;;0.70;61.40;;;;;;4175664;28;20301;-57
2022/03/28 02:41:26;;;;;;;19.70;8.77;;;0.60;61.20;;;;;;4175641;28;20266;-57
2022/03/28 02:43:28;;;;;;;18.20;7.80;;;0.60;60.90;;;;;;4175148;28;20262;-54
2022/03/28 02:45:37;;;;;;;22.70;9.63;;;0.60;61.80;;;;;;4176085;28;20339;-52
2022/03/28 02:47:38;;;;;;;19.17;8.73;;;0.60;61.20;;;;;;4174864;28;20262;-58
2022/03/28 02:49:39;;;;;;;19.77;7.77;;;0.50;61.50;;;;;;4179235;28;20281;-56
2022/03/28 02:51:40;;;;;;;23.00;8.57;;;0.50;61.50;;;;;;4191301;28;20274;-53
2022/03/28 02:53:42;;;;;;;21.87;8.00;;;0.50;61.40;;;;;;4179710;28;20698;-55
2022/03/28 02:55:43;;;;;;;21.87;9.83;;;0.50;61.20;;;;;;4174561;28;20324;-56
2022/03/28 02:57:44;;;;;;;24.50;9.07;;;0.50;61.80;;;;;;4175715;28;20316;-56
2022/03/28 02:59:45;;;;;;;21.63;8.70;;;0.60;61.70;;;;;;4175506;28;20291;-57
2022/03/28 03:01:48;;;;;;;15.40;8.07;;;0.60;61.50;;;;;;4175603;28;20286;-51
2022/03/28 03:03:49;;;;;;;25.97;10.13;;;0.60;61.30;;;;;;4174470;28;20321;-53
2022/03/28 03:05:50;;;;;;;15.83;8.43;;;0.60;61.80;;;;;;4175747;28;20676;-55
2022/03/28 03:07:51;;;;;;;19.87;8.27;;;0.50;61.50;;;;;;4174408;28;20754;-57
2022/03/28 03:09:52;;;;;;;21.23;8.80;;;0.50;61.60;;;;;;4174921;28;20266;-57
2022/03/28 03:11:54;;;;;;;17.40;7.83;;;0.40;61.80;;;;;;4175420;28;20254;-52
2022/03/28 03:13:56;;;;;;;15.37;8.47;;;0.40;61.80;;;;;;4174906;28;20266;-57
2022/03/28 03:15:59;;;;;;;20.00;8.07;;;0.40;61.50;;;;;;4184480;28;20270;-56
2022/03/28 03:18:00;;;;;;;18.83;8.40;;;0.30;62.00;;;;;;4190740;28;20266;-60
2022/03/28 03:20:02;;;;;;;20.50;8.93;;;0.30;62.40;;;;;;4192410;28;20335;-62
2022/03/28 03:22:04;;;;;;;21.20;9.27;;;0.30;62.60;;;;;;4189997;28;20656;-54
2022/03/28 03:24:05;;;;;;;19.10;8.53;;;0.20;62.70;;;;;;4188495;28;20331;-54
2022/03/28 03:26:06;;;;;;;20.20;8.43;;;0.20;62.10;;;;;;4174310;28;20424;-60
2022/03/28 03:28:07;;;;;;;20.57;8.97;;;0.20;62.20;;;;;;4190960;28;20270;-57
2022/03/28 03:30:11;;;;;;;18.43;8.83;;;0.20;62.30;;;;;;4175085;28;20340;-58
2022/03/28 03:32:13;;;;;;;18.40;8.90;;;0.20;62.50;;;;;;4178189;28;20826;-56
2022/03/28 03:34:14;;;;;;;22.97;8.93;;;0.10;62.10;;;;;;4174196;28;20269;-51
2022/03/28 03:36:16;;;;;;;20.60;9.07;;;0.10;62.30;;;;;;4174077;28;20285;-53
2022/03/28 03:38:17;;;;;;;26.07;8.53;;;0.10;62.40;;;;;;4173308;28;20371;-59
2022/03/28 03:40:19;;;;;;;16.37;8.13;;;0.10;62.50;;;;;;4175117;28;20680;-50
2022/03/28 03:42:20;;;;;;;17.67;8.20;;;0.10;62.40;;;;;;4174109;28;20792;-62
2022/03/28 03:44:21;;;;;;;17.07;8.20;;;0.10;62.60;;;;;;4174436;28;20274;-53
2022/03/28 03:46:22;;;;;;;17.13;8.10;;;0.00;62.60;;;;;;4184174;28;20378;-58
2022/03/28 03:48:25;;;;;;;18.27;9.07;;;0.10;62.80;;;;;;4189979;28;20319;-56
2022/03/28 03:50:26;;;;;;;20.70;9.33;;;0.00;63.00;;;;;;4189867;28;20724;-57
2022/03/28 03:52:27;;;;;;;21.07;8.63;;;0.00;63.20;;;;;;4173265;28;20282;-58
2022/03/28 03:54:30;;;;;;;22.90;8.80;;;0.00;63.10;;;;;;4174749;28;20274;-59
2022/03/28 03:56:31;;;;;;;25.67;10.30;;;0.00;63.10;;;;;;4173480;28;20273;-61
2022/03/28 03:58:32;;;;;;;20.23;9.97;;;0.00;63.30;;;;;;4174703;28;20341;-55
2022/03/28 04:00:34;;;;;;;25.73;9.40;;;0.00;63.40;;;;;;4173519;28;20276;-56
2022/03/28 04:02:35;;;;;;;22.20;9.90;;;-0.10;63.40;;;;;;4190405;28;20320;-56
2022/03/28 04:04:36;;;;;;;25.73;9.07;;;-0.10;63.20;;;;;;4179305;28;20269;-58
2022/03/28 04:06:37;;;;;;;28.20;9.70;;;-0.10;63.20;;;;;;4191329;28;20277;-55
2022/03/28 04:08:38;;;;;;;27.90;9.23;;;-0.10;63.50;;;;;;4189663;28;20300;-54
2022/03/28 04:10:42;;;;;;;23.87;9.13;;;-0.10;63.40;;;;;;4190531;28;20273;-58
2022/03/28 04:12:43;;;;;;;25.77;10.70;;;-0.10;63.30;;;;;;4190190;28;21029;-56
2022/03/28 04:14:45;;;;;;;18.83;9.53;;;-0.20;63.50;;;;;;4190415;28;20269;-53
2022/03/28 04:16:46;;;;;;;19.77;8.20;;;-0.10;63.70;;;;;;4189879;28;20331;-59
2022/03/28 04:18:47;;;;;;;24.70;9.90;;;-0.20;63.30;;;;;;4189627;28;20293;-54
2022/03/28 04:20:48;;;;;;;19.03;9.67;;;-0.20;63.50;;;;;;4190077;28;20277;-58
2022/03/28 04:22:51;;;;;;;23.07;9.90;;;-0.20;63.70;;;;;;4188733;28;20307;-62
2022/03/28 04:24:52;;;;;;;22.80;9.83;;;-0.10;63.70;;;;;;4204827;28;21125;-56
2022/03/28 04:26:53;;;;;;;22.23;10.10;;;-0.10;63.50;;;;;;4188813;28;20270;-58
2022/03/28 04:28:54;;;;;;;26.50;9.37;;;-0.10;63.40;;;;;;4190625;28;20299;-55
2022/03/28 04:30:57;;;;;;;22.80;10.60;;;0.00;63.50;;;;;;4189122;28;20269;-56
2022/03/28 04:32:58;;;;;;;25.20;10.23;;;0.10;64.00;;;;;;4194587;28;20690;-57
2022/03/28 04:34:59;;;;;;;22.07;9.20;;;0.20;63.80;;;;;;4204212;28;20322;-58
2022/03/28 04:37:00;;;;;;;28.53;8.73;;;0.40;63.30;;;;;;4203527;28;20613;-57
2022/03/28 04:39:01;;;;;;;20.27;9.73;;;0.50;62.50;;;;;;4198866;28;20640;-60
2022/03/28 04:41:02;;;;;;;26.03;9.93;;;0.80;62.30;;;;;;4192064;28;20312;-56
2022/03/28 04:43:04;;;;;;;21.83;9.73;;;1.10;61.90;;;;;;4196400;28;20327;-58
2022/03/28 04:45:06;;;;;;;17.93;8.80;;;1.40;61.50;;;;;;4189892;28;20269;-55
2022/03/28 04:47:07;;;;;;;17.33;9.13;;;1.60;61.10;;;;;;4190524;28;21113;-57
2022/03/28 04:49:13;;;;;;;24.30;9.90;;;1.80;60.60;;;;;;4191171;28;20956;-55
2022/03/28 04:51:14;;;;;;;23.23;9.73;;;1.90;60.60;;;;;;4189333;28;20709;-56
2022/03/28 04:53:17;;;;;;;29.97;10.90;;;2.00;60.50;;;;;;4188620;28;20834;-62
2022/03/28 04:55:18;;;;;;;22.60;9.57;;;2.20;60.50;;;;;;4189818;28;20343;-66
2022/03/28 04:57:19;;;;;;;25.40;10.37;;;2.40;60.20;;;;;;4197735;28;20269;-65
2022/03/28 04:59:20;;;;;;;27.50;10.30;;;2.60;60.00;;;;;;4206567;28;20292;-63
2022/03/28 05:01:22;;;;;;;28.80;9.87;;;2.80;59.70;;;;;;4202947;28;20356;-55
2022/03/28 05:03:23;;;;;;;26.60;10.53;;;3.00;59.50;;;;;;4196152;28;20265;-63
2022/03/28 05:05:24;;;;;;;24.40;10.27;;;3.30;59.30;;;;;;4189742;28;20312;-53
2022/03/28 05:07:32;;;;;;;23.90;10.50;;;3.50;58.90;;;;;;4190151;28;20342;-55
2022/03/28 05:09:33;;;;;;;22.33;10.00;;;3.80;58.50;;;;;;4192579;28;20272;-56
2022/03/28 05:11:34;;;;;;;25.67;10.13;;;4.20;58.30;;;;;;4206807;28;20285;-57
2022/03/28 05:13:35;;;;;;;29.20;9.23;;;4.60;58.10;;;;;;4219789;28;20397;-57
2022/03/28 05:15:36;;;;;;;26.80;10.60;;;5.00;57.50;;;;;;4206005;28;20322;-57
2022/03/28 05:17:38;;;;;;;31.53;8.50;;;5.40;57.00;;;;;;4206558;28;20249;-55
2022/03/28 05:19:39;;;;;;;25.67;7.97;;;5.70;56.60;;;;;;4205287;28;20304;-54
2022/03/28 05:21:40;;;;;;;20.53;7.40;;;6.10;56.30;;;;;;4206625;28;20269;-50
2022/03/28 05:23:41;;;;;;;27.33;8.83;;;6.40;55.70;;;;;;4202459;28;20265;-58
2022/03/28 05:25:43;;;;;;;33.03;9.90;;;6.50;55.30;;;;;;4189675;28;20331;-57
2022/03/28 05:27:46;;;;;;;29.27;9.43;;;6.60;54.90;;;;;;4188745;28;20303;-61
2022/03/28 05:29:47;;;;;;;29.63;9.30;;;6.70;54.10;;;;;;4190490;28;20311;-57
2022/03/28 05:31:48;;;;;;;26.10;11.00;;;7.10;54.40;;;;;;4189053;28;20273;-57
2022/03/28 05:33:50;;;;;;;27.50;10.97;;;7.40;53.50;;;;;;4189383;28;20265;-57
2022/03/28 05:35:52;;;;;;;28.27;11.07;;;7.60;53.10;;;;;;4188433;28;21118;-55
2022/03/28 05:37:54;;;;;;;30.00;11.83;;;7.80;52.90;;;;;;4190832;28;20036;-55
2022/03/28 05:39:55;;;;;;;38.87;10.70;;;8.20;52.80;;;;;;4187775;28;20094;-57
2022/03/28 05:41:56;;;;;;;31.30;12.73;;;8.20;52.00;;;;;;4201443;28;20048;-57
2022/03/28 05:43:58;;;;;;;41.10;12.53;;;8.20;52.30;;;;;;4205803;28;20431;-58
2022/03/28 05:45:59;;;;;;;45.40;14.57;;;8.10;51.90;;;;;;4188273;28;20044;-60
2022/03/28 05:48:00;;;;;;;42.33;13.83;;;7.90;51.70;;;;;;4188234;28;20129;-65
2022/03/28 05:50:02;;;;;;;32.93;12.93;;;7.30;51.60;;;;;;4189706;28;20044;-56
2022/03/28 05:52:04;;;;;;;44.53;12.43;;;7.00;52.50;;;;;;4188704;28;20723;-58
2022/03/28 05:54:05;;;;;;;35.47;12.63;;;6.80;52.00;;;;;;4203767;28;20090;-58
2022/03/28 05:56:06;;;;;;;49.03;15.50;;;6.60;52.10;;;;;;4197176;28;20062;-63
2022/03/28 05:58:08;;;;;;;42.93;13.73;;;6.80;52.90;;;;;;4189003;28;20484;-55
2022/03/28 06:00:10;;;;;;;51.70;13.30;;;6.70;53.50;;;;;;4190337;28;20061;-58
2022/03/28 06:02:12;;;;;;;32.30;13.03;;;6.50;55.00;;;;;;4192272;28;20040;-56
2022/03/28 06:04:14;;;;;;;60.93;14.03;;;5.90;56.30;;;;;;4191934;28;20036;-57
2022/03/28 06:06:16;;;;;;;44.67;13.43;;;5.40;57.30;;;;;;4191678;28;20105;-59
2022/03/28 06:08:17;;;;;;;38.00;13.53;;;5.10;57.50;;;;;;4192928;28;20434;-58
2022/03/28 06:10:18;;;;;;;38.77;13.77;;;5.10;57.80;;;;;;4191004;28;20097;-63
2022/03/28 06:12:19;;;;;;;40.87;14.80;;;4.90;58.40;;;;;;4191615;28;20281;-59
2022/03/28 06:14:20;;;;;;;41.13;14.10;;;5.00;58.20;;;;;;4191129;28;20281;-55
2022/03/28 06:16:21;;;;;;;34.20;13.20;;;4.80;58.50;;;;;;4192906;28;20326;-55
2022/03/28 06:18:22;;;;;;;50.13;13.33;;;4.40;59.20;;;;;;4191364;28;20327;-59
2022/03/28 06:20:24;;;;;;;37.07;13.63;;;4.30;58.60;;;;;;4192185;28;20293;-55
2022/03/28 06:22:25;;;;;;;41.73;13.60;;;4.20;58.60;;;;;;4191616;28;20265;-57
2022/03/28 06:24:26;;;;;;;35.47;12.63;;;4.30;58.40;;;;;;4191327;28;20262;-57
2022/03/28 06:26:27;;;;;;;40.10;13.30;;;4.40;58.40;;;;;;4192481;28;20343;-60
2022/03/28 06:28:28;;;;;;;30.70;11.27;;;4.80;57.70;;;;;;4191007;28;20323;-54
2022/03/28 06:30:30;;;;;;;32.30;11.07;;;5.30;57.30;;;;;;4192419;28;20273;-55
2022/03/28 06:32:31;;;;;;;23.13;10.97;;;5.90;56.10;;;;;;4191325;28;20406;-56
2022/03/28 06:34:32;;;;;;;31.67;11.57;;;6.40;54.90;;;;;;4191388;28;20319;-54
2022/03/28 06:36:34;;;;;;;29.80;11.70;;;6.50;54.20;;;;;;4191114;28;20737;-60
2022/03/28 06:38:36;;;;;;;43.20;11.60;;;6.80;54.00;;;;;;4192355;28;20874;-61
2022/03/28 06:40:38;;;;;;;39.10;12.90;;;7.10;53.40;;;;;;4190229;28;20305;-56
2022/03/28 06:42:39;;;;;;;33.00;12.33;;;7.40;53.60;;;;;;4191150;28;20338;-56
2022/03/28 06:44:40;;;;;;;32.70;11.87;;;8.00;52.70;;;;;;4190720;28;20273;-59
2022/03/28 06:46:45;;;;;;;31.83;10.23;;;8.10;51.70;;;;;;4191825;28;20644;-62
2022/03/28 06:48:48;;;;;;;30.23;10.07;;;8.20;51.40;;;;;;4190813;28;21176;-57
2022/03/28 06:50:50;;;;;;;25.57;10.53;;;7.90;50.70;;;;;;4191481;28;20277;-60
2022/03/28 06:52:52;;;;;;;30.00;10.53;;;7.70;51.30;;;;;;4191173;28;20254;-68
2022/03/28 06:54:53;;;;;;;27.73;10.13;;;7.70;51.60;;;;;;4190748;28;20269;-59
2022/03/28 06:56:54;;;;;;;27.57;9.53;;;7.90;51.50;;;;;;4191744;28;20082;-63
2022/03/28 06:58:56;;;;;;;27.83;8.73;;;7.90;50.70;;;;;;4190507;28;20270;-55
2022/03/28 07:00:57;;;;;;;28.13;9.80;;;8.20;51.20;;;;;;4191213;28;20110;-57
2022/03/28 07:02:58;;;;;;;27.17;9.60;;;8.30;50.60;;;;;;4190192;28;20110;-58
2022/03/28 07:04:59;;;;;;;28.53;10.47;;;8.60;50.60;;;;;;4191946;28;20073;-58
2022/03/28 07:07:00;;;;;;;28.83;10.67;;;8.60;50.90;;;;;;4189733;28;20561;-58
2022/03/28 07:09:04;;;;;;;32.53;10.17;;;8.50;50.40;;;;;;4192113;28;20540;-58
2022/03/28 07:11:06;;;;;;;26.67;9.43;;;8.20;49.70;;;;;;4190304;28;20106;-59
2022/03/28 07:13:07;;;;;;;27.27;9.07;;;8.20;50.10;;;;;;4190680;28;20413;-59
2022/03/28 07:15:10;;;;;;;24.57;9.80;;;8.30;50.20;;;;;;4189016;28;20439;-57
2022/03/28 07:17:11;;;;;;;35.40;11.10;;;8.50;50.00;;;;;;4191836;28;20021;-57
2022/03/28 07:19:13;;;;;;;31.27;10.37;;;9.00;49.30;;;;;;4190145;28;20062;-59
2022/03/28 07:21:14;;;;;;;28.27;9.50;;;9.00;48.80;;;;;;4190619;28;20056;-55
2022/03/28 07:23:16;;;;;;;31.80;11.90;;;9.10;48.90;;;;;;4190638;28;20542;-54
2022/03/28 07:25:18;;;;;;;28.03;10.20;;;9.30;48.60;;;;;;4190341;28;20048;-58
2022/03/28 07:27:19;;;;;;;42.43;12.60;;;9.50;48.10;;;;;;4190337;28;20036;-57
2022/03/28 07:29:21;;;;;;;38.07;11.60;;;9.40;47.90;;;;;;4190237;28;20122;-56
2022/03/28 07:31:22;;;;;;;38.57;10.33;;;9.60;47.70;;;;;;4191150;28;20078;-56
2022/03/28 07:33:24;;;;;;;31.03;9.80;;;9.90;47.70;;;;;;4189798;28;20569;-56
2022/03/28 07:35:25;;;;;;;23.70;8.53;;;10.30;47.60;;;;;;4191059;28;20032;-58
2022/03/28 07:37:26;;;;;;;29.50;12.50;;;10.60;46.50;;;;;;4189865;28;20085;-56
2022/03/28 07:39:28;;;;;;;22.50;10.10;;;10.60;46.40;;;;;;4189124;28;20041;-56
2022/03/28 07:41:29;;;;;;;24.20;8.90;;;10.70;45.80;;;;;;4189584;28;20721;-58
2022/03/28 07:43:32;;;;;;;20.80;8.30;;;10.90;45.70;;;;;;4190818;28;20102;-52
2022/03/28 07:45:34;;;;;;;19.17;8.33;;;11.20;45.40;;;;;;4190041;28;20557;-53
2022/03/28 07:47:36;;;;;;;20.40;7.73;;;11.40;45.40;;;;;;4190320;28;20116;-58
2022/03/28 07:49:38;;;;;;;21.23;9.00;;;11.70;44.90;;;;;;4189993;28;20093;-62
2022/03/28 07:51:39;;;;;;;27.47;8.53;;;12.00;44.80;;;;;;4191041;28;20074;-58
2022/03/28 07:53:40;;;;;;;18.30;6.93;;;12.00;44.50;;;;;;4204151;28;20763;-59
2022/03/28 07:55:42;;;;;;;21.77;6.20;;;12.10;44.70;;;;;;4190772;28;20043;-59
2022/03/28 07:57:44;;;;;;;23.77;6.70;;;12.20;44.90;;;;;;4189999;28;20287;-57
2022/03/28 07:59:47;;;;;;;23.30;6.50;;;12.00;44.50;;;;;;4189551;28;20086;-57
2022/03/28 08:01:49;;;;;;;16.40;5.17;;;11.70;43.90;;;;;;4189700;28;20110;-60
2022/03/28 08:03:50;;;;;;;21.93;6.10;;;11.40;43.40;;;;;;4189979;28;20028;-56
2022/03/28 08:05:53;;;;;;;26.10;5.70;;;11.40;43.80;;;;;;4191057;28;20029;-63
2022/03/28 08:07:54;;;;;;;24.63;6.30;;;11.50;44.20;;;;;;4189345;28;20041;-56
2022/03/28 08:09:56;;;;;;;18.13;6.67;;;11.80;44.10;;;;;;4190432;28;20036;-58
2022/03/28 08:11:57;;;;;;;22.33;5.27;;;11.90;43.90;;;;;;4189145;28;20418;-58
2022/03/28 08:13:58;;;;;;;20.57;6.57;;;12.10;43.70;;;;;;4191297;28;20024;-57
2022/03/28 08:15:59;;;;;;;15.77;5.00;;;12.20;43.10;;;;;;4189122;28;20036;-63
2022/03/28 08:18:01;;;;;;;13.00;5.40;;;12.10;43.00;;;;;;4191354;28;20110;-56
2022/03/28 08:20:03;;;;;;;14.63;5.67;;;12.00;42.60;;;;;;4204969;28;20039;-57
2022/03/28 08:22:05;;;;;;;12.33;5.43;;;11.90;42.30;;;;;;4190525;28;20077;-60
2022/03/28 08:24:06;;;;;;;17.43;5.23;;;11.90;42.10;;;;;;4188786;28;20090;-57
2022/03/28 08:26:08;;;;;;;18.53;6.33;;;11.70;41.80;;;;;;4188667;28;20024;-54
2022/03/28 08:28:09;;;;;;;14.27;5.87;;;11.50;41.90;;;;;;4189598;28;20029;-56
2022/03/28 08:30:12;;;;;;;13.07;4.90;;;11.70;41.80;;;;;;4189636;28;20472;-58
2022/03/28 08:32:13;;;;;;;16.23;4.33;;;11.50;41.60;;;;;;4189701;28;20028;-56
2022/03/28 08:34:14;;;;;;;13.93;4.40;;;11.50;41.60;;;;;;4188842;28;20098;-59
2022/03/28 08:36:17;;;;;;;13.33;4.23;;;11.60;41.80;;;;;;4190118;28;20036;-57
2022/03/28 08:38:18;;;;;;;15.40;4.03;;;11.70;41.80;;;;;;4188679;28;20044;-50
2022/03/28 08:40:19;;;;;;;7.93;3.30;;;11.70;41.20;;;;;;4190374;28;20633;-57
2022/03/28 08:42:22;;;;;;;6.33;3.63;;;11.60;41.00;;;;;;4189000;28;20082;-60
2022/03/28 08:44:26;;;;;;;9.13;3.73;;;11.60;41.00;;;;;;4190591;28;20450;-56
2022/03/28 08:46:29;;;;;;;12.03;4.80;;;11.70;41.40;;;;;;4203893;28;20499;-57
2022/03/28 08:48:38;;;;;;;14.90;4.77;;;11.70;41.30;;;;;;4190171;28;20895;-58
2022/03/28 08:50:45;;;;;;;11.77;4.90;;;11.90;41.50;;;;;;4189183;28;20529;-63
2022/03/28 08:52:46;;;;;;;9.27;3.80;;;11.90;41.30;;;;;;4190288;28;20492;-58
2022/03/28 08:54:48;;;;;;;8.57;3.87;;;12.00;40.90;;;;;;4189031;28;20036;-54
2022/03/28 08:56:49;;;;;;;14.10;4.13;;;12.10;40.30;;;;;;4189935;28;20052;-57
2022/03/28 08:58:50;;;;;;;9.47;4.53;;;12.20;40.40;;;;;;4189347;28;20450;-60
2022/03/28 09:00:51;;;;;;;10.07;4.10;;;12.20;40.30;;;;;;4189840;28;20032;-57
2022/03/28 09:02:57;;;;;;;14.17;4.50;;;12.20;40.40;;;;;;4189176;28;20457;-58
2022/03/28 09:04:59;;;;;;;11.93;4.70;;;12.30;40.20;;;;;;4189530;28;20106;-57
2022/03/28 09:07:00;;;;;;;8.87;3.33;;;12.40;39.90;;;;;;4188628;28;20106;-58
2022/03/28 09:09:19;;;;;;;11.03;4.00;;;12.30;39.60;;;;;;4189078;28;20113;-56
2022/03/28 09:11:21;;;;;;;7.63;3.23;;;12.40;39.40;;;;;;4189546;28;20033;-61
2022/03/28 09:13:22;;;;;;;6.40;3.17;;;12.50;39.30;;;;;;4188950;28;20169;-58
2022/03/28 09:15:24;;;;;;;11.57;4.20;;;12.70;39.50;;;;;;4188710;28;20373;-60
2022/03/28 09:17:25;;;;;;;14.67;4.97;;;12.90;39.30;;;;;;4188719;28;20032;-58
2022/03/28 09:19:48;;;;;;;5.80;3.17;;;13.00;38.60;;;;;;4190246;28;20036;-57
2022/03/28 09:21:52;;;;;;;9.63;2.93;;;13.00;37.70;;;;;;4202430;28;20101;-58
2022/03/28 09:23:54;;;;;;;4.73;3.00;;;13.20;36.90;;;;;;4189268;28;20099;-55
2022/03/28 09:25:56;;;;;;;5.60;2.20;;;13.10;36.10;;;;;;4188288;28;20062;-57
2022/03/28 09:27:57;;;;;;;9.30;3.67;;;13.10;36.00;;;;;;4189284;28;20048;-58
2022/03/28 09:30:05;;;;;;;6.97;3.27;;;13.20;36.30;;;;;;4188072;28;20040;-61
2022/03/28 09:32:23;;;;;;;9.33;2.50;;;13.30;36.90;;;;;;4189573;28;20017;-56
2022/03/28 09:34:24;;;;;;;8.00;2.80;;;13.30;36.40;;;;;;4188805;28;20098;-58
2022/03/28 09:36:49;;;;;;;7.40;3.37;;;13.40;35.90;;;;;;4193318;28;20415;-53
2022/03/28 09:38:56;;;;;;;3.30;1.93;;;13.60;35.90;;;;;;4191572;28;20109;-56
2022/03/28 09:40:57;;;;;;;13.73;3.17;;;13.60;35.50;;;;;;4192622;28;20090;-59
2022/03/28 09:43:01;;;;;;;7.13;3.10;;;13.50;35.00;;;;;;4192063;28;20036;-57
2022/03/28 09:45:17;;;;;;;8.40;2.63;;;13.50;34.90;;;;;;4192620;28;20048;-57
2022/03/28 09:47:23;;;;;;;8.80;2.53;;;13.50;35.30;;;;;;4192366;28;20033;-55
2022/03/28 09:49:25;;;;;;;9.00;4.63;;;13.60;35.60;;;;;;4192516;28;20930;-59
2022/03/28 09:51:31;;;;;;;9.57;4.93;;;13.80;36.50;;;;;;4191137;28;20094;-57
2022/03/28 09:53:37;;;;;;;8.47;4.23;;;13.90;37.40;;;;;;4190721;28;20036;-56
2022/03/28 09:55:56;;;;;;;5.43;2.90;;;13.90;37.20;;;;;;4190762;28;20048;-57
2022/03/28 09:57:57;;;;;;;8.40;3.83;;;13.90;36.60;;;;;;4192565;28;20024;-53
2022/03/28 10:00:09;;;;;;;12.80;4.63;;;13.90;37.10;;;;;;4190754;28;20472;-58
2022/03/28 10:02:18;;;;;;;12.10;4.83;;;13.90;37.10;;;;;;4192330;28;20110;-61
2022/03/28 10:04:19;;;;;;;10.23;4.90;;;13.90;37.60;;;;;;4191532;28;20419;-57
2022/03/28 10:06:22;;;;;;;14.47;6.57;;;13.90;38.10;;;;;;4192400;28;20044;-57
2022/03/28 10:08:23;;;;;;;12.20;5.80;;;14.00;38.40;;;;;;4190275;28;20443;-57
2022/03/28 10:10:24;;;;;;;14.60;6.20;;;14.00;38.10;;;;;;4191596;28;20032;-54
2022/03/28 10:12:26;;;;;;;12.77;6.33;;;13.90;38.40;;;;;;4190319;28;20044;-58
2022/03/28 10:14:29;;;;;;;17.27;6.53;;;13.90;39.00;;;;;;4191229;28;20037;-60
2022/03/28 10:16:30;;;;;;;13.80;6.77;;;14.00;39.00;;;;;;4190311;28;20082;-58
2022/03/28 10:18:36;;;;;;;12.63;6.43;;;14.10;38.90;;;;;;4191231;28;20087;-61
2022/03/28 10:20:42;;;;;;;11.80;6.37;;;14.30;38.90;;;;;;4188832;28;20053;-55
2022/03/28 10:22:48;;;;;;;17.53;7.37;;;14.30;39.20;;;;;;4190306;28;20372;-60
2022/03/28 10:24:52;;;;;;;13.37;6.53;;;14.50;39.50;;;;;;4190821;28;20017;-56
2022/03/28 10:26:56;;;;;;;9.87;5.77;;;14.40;39.70;;;;;;4190187;28;20029;-63
2022/03/28 10:29:15;;;;;;;12.23;6.57;;;14.40;39.20;;;;;;4190092;28;20048;-62
2022/03/28 10:31:18;;;;;;;12.07;5.90;;;14.50;39.50;;;;;;4190189;28;20024;-56
2022/03/28 10:33:22;;;;;;;14.27;6.10;;;14.40;39.30;;;;;;4190389;28;20102;-58
2022/03/28 10:35:24;;;;;;;12.63;5.67;;;14.30;39.60;;;;;;4190031;28;20556;-58